sensor_id;sensor_type;location;lat;lon;timestamp;P1;durP1;ratioP1;P2;durP2;ratioP2
13279;SDS011;6708;49.814;8.652;2023-09-30T00:00:05;3.40;;;1.47;;
13279;SDS011;6708;49.814;8.652;2023-09-30T00:02:36;3.00;;;1.57;;
13279;SDS011;6708;49.814;8.652;2023-09-30T00:05:05;4.30;;;1.80;;
13279;SDS011;6708;49.814;8.652;2023-09-30T00:07:38;2.17;;;1.30;;
13279;SDS011;6708;49.814;8.652;2023-09-30T00:10:06;2.50;;;1.50;;
13279;SDS011;6708;49.814;8.652;2023-09-30T00:12:35;1.27;;;1.17;;
13279;SDS011;6708;49.814;8.652;2023-09-30T00:15:04;1.40;;;1.30;;
13279;SDS011;6708;49.814;8.652;2023-09-30T00:17:34;2.53;;;1.30;;
13279;SDS011;6708;49.814;8.652;2023-09-30T00:20:02;3.90;;;1.37;;
13279;SDS011;6708;49.814;8.652;2023-09-30T00:22:32;1.60;;;1.50;;
13279;SDS011;6708;49.814;8.652;2023-09-30T00:25:03;1.47;;;1.37;;
13279;SDS011;6708;49.814;8.652;2023-09-30T00:27:33;1.40;;;1.30;;
13279;SDS011;6708;49.814;8.652;2023-09-30T00:30:01;2.87;;;1.57;;
13279;SDS011;6708;49.814;8.652;2023-09-30T00:32:31;2.30;;;1.37;;
13279;SDS011;6708;49.814;8.652;2023-09-30T00:35:02;2.67;;;1.20;;
13279;SDS011;6708;49.814;8.652;2023-09-30T00:37:34;3.60;;;1.13;;
13279;SDS011;6708;49.814;8.652;2023-09-30T00:40:05;1.63;;;1.53;;
13279;SDS011;6708;49.814;8.652;2023-09-30T00:42:37;1.27;;;1.17;;
13279;SDS011;6708;49.814;8.652;2023-09-30T00:45:06;2.10;;;1.20;;
13279;SDS011;6708;49.814;8.652;2023-09-30T00:47:36;1.10;;;1.00;;
13279;SDS011;6708;49.814;8.652;2023-09-30T00:50:05;1.80;;;1.47;;
13279;SDS011;6708;49.814;8.652;2023-09-30T00:52:36;2.57;;;1.30;;
13279;SDS011;6708;49.814;8.652;2023-09-30T00:55:08;1.50;;;1.40;;
13279;SDS011;6708;49.814;8.652;2023-09-30T00:57:36;2.53;;;1.20;;
13279;SDS011;6708;49.814;8.652;2023-09-30T01:00:06;0.93;;;0.93;;
13279;SDS011;6708;49.814;8.652;2023-09-30T01:02:37;1.43;;;1.33;;
13279;SDS011;6708;49.814;8.652;2023-09-30T01:05:06;1.97;;;1.10;;
13279;SDS011;6708;49.814;8.652;2023-09-30T01:07:35;3.00;;;0.90;;
13279;SDS011;6708;49.814;8.652;2023-09-30T01:10:07;2.93;;;1.13;;
13279;SDS011;6708;49.814;8.652;2023-09-30T01:12:36;1.30;;;1.30;;
13279;SDS011;6708;49.814;8.652;2023-09-30T01:15:05;1.40;;;1.30;;
13279;SDS011;6708;49.814;8.652;2023-09-30T01:17:35;1.40;;;1.30;;
13279;SDS011;6708;49.814;8.652;2023-09-30T01:20:04;1.27;;;1.17;;
13279;SDS011;6708;49.814;8.652;2023-09-30T01:22:45;1.20;;;1.20;;
13279;SDS011;6708;49.814;8.652;2023-09-30T01:25:13;6.27;;;1.30;;
13279;SDS011;6708;49.814;8.652;2023-09-30T01:27:41;0.97;;;0.97;;
13279;SDS011;6708;49.814;8.652;2023-09-30T01:30:10;1.13;;;1.10;;
13279;SDS011;6708;49.814;8.652;2023-09-30T01:32:39;1.53;;;1.43;;
13279;SDS011;6708;49.814;8.652;2023-09-30T01:35:08;5.77;;;1.53;;
13279;SDS011;6708;49.814;8.652;2023-09-30T01:37:38;1.47;;;1.37;;
13279;SDS011;6708;49.814;8.652;2023-09-30T01:40:09;2.53;;;1.40;;
13279;SDS011;6708;49.814;8.652;2023-09-30T01:42:39;1.27;;;1.17;;
13279;SDS011;6708;49.814;8.652;2023-09-30T01:45:08;1.40;;;1.30;;
13279;SDS011;6708;49.814;8.652;2023-09-30T01:47:38;1.37;;;1.37;;
13279;SDS011;6708;49.814;8.652;2023-09-30T01:50:06;1.23;;;1.10;;
13279;SDS011;6708;49.814;8.652;2023-09-30T01:52:35;1.00;;;1.00;;
13279;SDS011;6708;49.814;8.652;2023-09-30T01:55:04;1.30;;;1.20;;
13279;SDS011;6708;49.814;8.652;2023-09-30T01:57:36;1.10;;;1.10;;
13279;SDS011;6708;49.814;8.652;2023-09-30T02:00:05;2.57;;;0.93;;
13279;SDS011;6708;49.814;8.652;2023-09-30T02:02:41;1.10;;;1.10;;
13279;SDS011;6708;49.814;8.652;2023-09-30T02:05:10;1.30;;;1.20;;
13279;SDS011;6708;49.814;8.652;2023-09-30T02:07:38;1.37;;;1.27;;
13279;SDS011;6708;49.814;8.652;2023-09-30T02:10:07;3.23;;;1.20;;
13279;SDS011;6708;49.814;8.652;2023-09-30T02:12:39;1.30;;;1.20;;
13279;SDS011;6708;49.814;8.652;2023-09-30T02:15:08;1.60;;;1.50;;
13279;SDS011;6708;49.814;8.652;2023-09-30T02:17:37;1.03;;;1.03;;
13279;SDS011;6708;49.814;8.652;2023-09-30T02:20:10;1.50;;;1.40;;
13279;SDS011;6708;49.814;8.652;2023-09-30T02:22:43;2.10;;;1.13;;
13279;SDS011;6708;49.814;8.652;2023-09-30T02:25:12;1.37;;;1.27;;
13279;SDS011;6708;49.814;8.652;2023-09-30T02:27:44;1.43;;;1.20;;
13279;SDS011;6708;49.814;8.652;2023-09-30T02:30:12;1.20;;;1.10;;
13279;SDS011;6708;49.814;8.652;2023-09-30T02:32:41;1.57;;;1.40;;
13279;SDS011;6708;49.814;8.652;2023-09-30T02:35:11;1.50;;;1.40;;
13279;SDS011;6708;49.814;8.652;2023-09-30T02:37:40;1.00;;;1.00;;
13279;SDS011;6708;49.814;8.652;2023-09-30T02:40:09;1.57;;;1.47;;
13279;SDS011;6708;49.814;8.652;2023-09-30T02:42:40;1.43;;;1.30;;
13279;SDS011;6708;49.814;8.652;2023-09-30T02:45:12;2.63;;;1.20;;
13279;SDS011;6708;49.814;8.652;2023-09-30T02:47:42;1.40;;;1.40;;
13279;SDS011;6708;49.814;8.652;2023-09-30T02:50:11;1.33;;;1.23;;
13279;SDS011;6708;49.814;8.652;2023-09-30T02:52:39;1.87;;;1.40;;
13279;SDS011;6708;49.814;8.652;2023-09-30T02:55:09;1.37;;;1.27;;
13279;SDS011;6708;49.814;8.652;2023-09-30T02:57:38;1.60;;;0.83;;
13279;SDS011;6708;49.814;8.652;2023-09-30T03:00:08;1.50;;;1.40;;
13279;SDS011;6708;49.814;8.652;2023-09-30T03:02:52;2.03;;;1.17;;
13279;SDS011;6708;49.814;8.652;2023-09-30T03:05:22;1.13;;;1.13;;
13279;SDS011;6708;49.814;8.652;2023-09-30T03:07:48;1.57;;;1.47;;
13279;SDS011;6708;49.814;8.652;2023-09-30T03:10:18;1.50;;;1.40;;
13279;SDS011;6708;49.814;8.652;2023-09-30T03:12:49;2.40;;;1.30;;
13279;SDS011;6708;49.814;8.652;2023-09-30T03:15:17;1.03;;;0.93;;
13279;SDS011;6708;49.814;8.652;2023-09-30T03:17:46;1.10;;;1.10;;
13279;SDS011;6708;49.814;8.652;2023-09-30T03:20:17;1.33;;;1.33;;
13279;SDS011;6708;49.814;8.652;2023-09-30T03:22:47;1.20;;;1.20;;
13279;SDS011;6708;49.814;8.652;2023-09-30T03:25:16;1.13;;;1.03;;
13279;SDS011;6708;49.814;8.652;2023-09-30T03:27:46;0.90;;;0.90;;
13279;SDS011;6708;49.814;8.652;2023-09-30T03:30:15;2.40;;;1.37;;
13279;SDS011;6708;49.814;8.652;2023-09-30T03:32:45;1.97;;;1.30;;
13279;SDS011;6708;49.814;8.652;2023-09-30T03:35:13;1.10;;;1.07;;
13279;SDS011;6708;49.814;8.652;2023-09-30T03:37:45;1.77;;;1.40;;
13279;SDS011;6708;49.814;8.652;2023-09-30T03:40:15;3.20;;;1.70;;
13279;SDS011;6708;49.814;8.652;2023-09-30T03:42:52;3.23;;;1.70;;
13279;SDS011;6708;49.814;8.652;2023-09-30T03:45:21;1.63;;;1.40;;
13279;SDS011;6708;49.814;8.652;2023-09-30T03:47:49;1.67;;;1.50;;
13279;SDS011;6708;49.814;8.652;2023-09-30T03:50:18;2.73;;;1.20;;
13279;SDS011;6708;49.814;8.652;2023-09-30T03:52:51;1.40;;;1.40;;
13279;SDS011;6708;49.814;8.652;2023-09-30T03:55:20;2.57;;;1.57;;
13279;SDS011;6708;49.814;8.652;2023-09-30T03:57:48;1.43;;;1.37;;
13279;SDS011;6708;49.814;8.652;2023-09-30T04:00:17;1.70;;;1.60;;
13279;SDS011;6708;49.814;8.652;2023-09-30T04:02:47;1.47;;;1.40;;
13279;SDS011;6708;49.814;8.652;2023-09-30T04:05:19;1.80;;;1.60;;
13279;SDS011;6708;49.814;8.652;2023-09-30T04:07:54;1.70;;;1.60;;
13279;SDS011;6708;49.814;8.652;2023-09-30T04:10:22;1.53;;;1.50;;
13279;SDS011;6708;49.814;8.652;2023-09-30T04:12:51;1.50;;;1.50;;
13279;SDS011;6708;49.814;8.652;2023-09-30T04:15:20;2.20;;;1.67;;
13279;SDS011;6708;49.814;8.652;2023-09-30T04:17:48;1.70;;;1.60;;
13279;SDS011;6708;49.814;8.652;2023-09-30T04:20:17;1.67;;;1.40;;
13279;SDS011;6708;49.814;8.652;2023-09-30T04:22:48;2.93;;;1.60;;
13279;SDS011;6708;49.814;8.652;2023-09-30T04:25:25;1.67;;;1.50;;
13279;SDS011;6708;49.814;8.652;2023-09-30T04:27:53;1.83;;;1.67;;
13279;SDS011;6708;49.814;8.652;2023-09-30T04:30:22;2.70;;;1.67;;
13279;SDS011;6708;49.814;8.652;2023-09-30T04:32:51;2.27;;;1.50;;
13279;SDS011;6708;49.814;8.652;2023-09-30T04:35:20;1.40;;;1.30;;
13279;SDS011;6708;49.814;8.652;2023-09-30T04:37:48;2.53;;;1.83;;
13279;SDS011;6708;49.814;8.652;2023-09-30T04:40:17;3.53;;;1.53;;
13279;SDS011;6708;49.814;8.652;2023-09-30T04:42:49;1.60;;;1.50;;
13279;SDS011;6708;49.814;8.652;2023-09-30T04:45:19;2.40;;;1.63;;
13279;SDS011;6708;49.814;8.652;2023-09-30T04:47:49;1.47;;;1.37;;
13279;SDS011;6708;49.814;8.652;2023-09-30T04:50:18;1.33;;;1.23;;
13279;SDS011;6708;49.814;8.652;2023-09-30T04:52:47;3.67;;;1.40;;
13279;SDS011;6708;49.814;8.652;2023-09-30T04:55:16;4.97;;;1.37;;
13279;SDS011;6708;49.814;8.652;2023-09-30T04:57:45;1.43;;;1.33;;
13279;SDS011;6708;49.814;8.652;2023-09-30T05:00:17;1.50;;;1.37;;
13279;SDS011;6708;49.814;8.652;2023-09-30T05:02:50;2.00;;;1.30;;
13279;SDS011;6708;49.814;8.652;2023-09-30T05:05:20;1.80;;;1.70;;
13279;SDS011;6708;49.814;8.652;2023-09-30T05:07:48;1.87;;;1.63;;
13279;SDS011;6708;49.814;8.652;2023-09-30T05:10:16;1.50;;;1.40;;
13279;SDS011;6708;49.814;8.652;2023-09-30T05:12:45;1.40;;;1.30;;
13279;SDS011;6708;49.814;8.652;2023-09-30T05:15:16;3.40;;;1.53;;
13279;SDS011;6708;49.814;8.652;2023-09-30T05:17:45;1.40;;;1.40;;
13279;SDS011;6708;49.814;8.652;2023-09-30T05:20:15;1.93;;;1.60;;
13279;SDS011;6708;49.814;8.652;2023-09-30T05:22:45;2.40;;;1.73;;
13279;SDS011;6708;49.814;8.652;2023-09-30T05:25:14;4.27;;;1.60;;
13279;SDS011;6708;49.814;8.652;2023-09-30T05:27:44;5.37;;;1.20;;
13279;SDS011;6708;49.814;8.652;2023-09-30T05:30:13;2.47;;;1.57;;
13279;SDS011;6708;49.814;8.652;2023-09-30T05:32:44;1.23;;;1.23;;
13279;SDS011;6708;49.814;8.652;2023-09-30T05:35:12;2.10;;;1.67;;
13279;SDS011;6708;49.814;8.652;2023-09-30T05:37:42;1.93;;;1.60;;
13279;SDS011;6708;49.814;8.652;2023-09-30T05:40:11;3.03;;;2.73;;
13279;SDS011;6708;49.814;8.652;2023-09-30T05:42:47;4.03;;;2.43;;
13279;SDS011;6708;49.814;8.652;2023-09-30T05:45:16;3.83;;;2.10;;
13279;SDS011;6708;49.814;8.652;2023-09-30T05:47:47;3.63;;;1.90;;
13279;SDS011;6708;49.814;8.652;2023-09-30T05:50:17;1.90;;;1.80;;
13279;SDS011;6708;49.814;8.652;2023-09-30T05:52:49;1.73;;;1.33;;
13279;SDS011;6708;49.814;8.652;2023-09-30T05:55:18;1.73;;;1.53;;
13279;SDS011;6708;49.814;8.652;2023-09-30T05:57:48;1.97;;;1.50;;
13279;SDS011;6708;49.814;8.652;2023-09-30T06:00:17;1.80;;;1.63;;
13279;SDS011;6708;49.814;8.652;2023-09-30T06:02:51;1.50;;;1.40;;
13279;SDS011;6708;49.814;8.652;2023-09-30T06:05:20;2.30;;;1.37;;
13279;SDS011;6708;49.814;8.652;2023-09-30T06:07:51;1.40;;;1.30;;
13279;SDS011;6708;49.814;8.652;2023-09-30T06:10:20;2.00;;;1.53;;
13279;SDS011;6708;49.814;8.652;2023-09-30T06:12:50;2.53;;;1.43;;
13279;SDS011;6708;49.814;8.652;2023-09-30T06:15:20;2.30;;;1.63;;
13279;SDS011;6708;49.814;8.652;2023-09-30T06:17:53;1.60;;;1.50;;
13279;SDS011;6708;49.814;8.652;2023-09-30T06:20:25;1.93;;;1.60;;
13279;SDS011;6708;49.814;8.652;2023-09-30T06:22:58;5.63;;;1.50;;
13279;SDS011;6708;49.814;8.652;2023-09-30T06:25:26;2.90;;;1.60;;
13279;SDS011;6708;49.814;8.652;2023-09-30T06:27:55;1.60;;;1.50;;
13279;SDS011;6708;49.814;8.652;2023-09-30T06:30:24;2.47;;;2.10;;
13279;SDS011;6708;49.814;8.652;2023-09-30T06:32:57;3.63;;;2.07;;
13279;SDS011;6708;49.814;8.652;2023-09-30T06:35:26;2.60;;;1.87;;
13279;SDS011;6708;49.814;8.652;2023-09-30T06:37:55;1.60;;;1.50;;
13279;SDS011;6708;49.814;8.652;2023-09-30T06:40:24;2.33;;;1.83;;
13279;SDS011;6708;49.814;8.652;2023-09-30T06:42:53;2.57;;;2.00;;
13279;SDS011;6708;49.814;8.652;2023-09-30T06:45:23;1.70;;;1.60;;
13279;SDS011;6708;49.814;8.652;2023-09-30T06:47:51;2.73;;;2.10;;
13279;SDS011;6708;49.814;8.652;2023-09-30T06:50:23;1.73;;;1.53;;
13279;SDS011;6708;49.814;8.652;2023-09-30T06:52:51;1.90;;;1.70;;
13279;SDS011;6708;49.814;8.652;2023-09-30T06:55:20;1.83;;;1.57;;
13279;SDS011;6708;49.814;8.652;2023-09-30T06:57:50;2.20;;;1.67;;
13279;SDS011;6708;49.814;8.652;2023-09-30T07:00:19;1.73;;;1.63;;
13279;SDS011;6708;49.814;8.652;2023-09-30T07:02:47;2.00;;;1.90;;
13279;SDS011;6708;49.814;8.652;2023-09-30T07:05:16;1.80;;;1.70;;
13279;SDS011;6708;49.814;8.652;2023-09-30T07:07:47;2.53;;;1.63;;
13279;SDS011;6708;49.814;8.652;2023-09-30T07:10:16;1.63;;;1.53;;
13279;SDS011;6708;49.814;8.652;2023-09-30T07:12:44;5.10;;;1.80;;
13279;SDS011;6708;49.814;8.652;2023-09-30T07:15:13;1.87;;;1.70;;
13279;SDS011;6708;49.814;8.652;2023-09-30T07:17:42;3.53;;;1.93;;
13279;SDS011;6708;49.814;8.652;2023-09-30T07:20:11;2.10;;;1.90;;
13279;SDS011;6708;49.814;8.652;2023-09-30T07:22:40;1.77;;;1.40;;
13279;SDS011;6708;49.814;8.652;2023-09-30T07:25:11;6.17;;;2.33;;
13279;SDS011;6708;49.814;8.652;2023-09-30T07:27:41;3.17;;;2.10;;
13279;SDS011;6708;49.814;8.652;2023-09-30T07:30:14;3.10;;;1.87;;
13279;SDS011;6708;49.814;8.652;2023-09-30T07:32:42;1.93;;;1.83;;
13279;SDS011;6708;49.814;8.652;2023-09-30T07:35:14;2.53;;;1.90;;
13279;SDS011;6708;49.814;8.652;2023-09-30T07:37:43;3.93;;;1.87;;
13279;SDS011;6708;49.814;8.652;2023-09-30T07:40:17;2.97;;;1.90;;
13279;SDS011;6708;49.814;8.652;2023-09-30T07:42:46;2.17;;;1.97;;
13279;SDS011;6708;49.814;8.652;2023-09-30T07:45:15;2.70;;;2.20;;
13279;SDS011;6708;49.814;8.652;2023-09-30T07:47:45;9.37;;;2.43;;
13279;SDS011;6708;49.814;8.652;2023-09-30T07:50:14;3.40;;;2.30;;
13279;SDS011;6708;49.814;8.652;2023-09-30T07:52:43;3.30;;;2.27;;
13279;SDS011;6708;49.814;8.652;2023-09-30T07:55:11;2.63;;;2.10;;
13279;SDS011;6708;49.814;8.652;2023-09-30T07:57:43;2.50;;;2.30;;
13279;SDS011;6708;49.814;8.652;2023-09-30T08:00:12;2.80;;;1.80;;
13279;SDS011;6708;49.814;8.652;2023-09-30T08:02:43;3.40;;;2.20;;
13279;SDS011;6708;49.814;8.652;2023-09-30T08:05:12;7.43;;;2.80;;
13279;SDS011;6708;49.814;8.652;2023-09-30T08:07:40;4.90;;;2.53;;
13279;SDS011;6708;49.814;8.652;2023-09-30T08:10:11;3.87;;;2.20;;
13279;SDS011;6708;49.814;8.652;2023-09-30T08:12:44;5.67;;;2.70;;
13279;SDS011;6708;49.814;8.652;2023-09-30T08:15:14;3.67;;;2.23;;
13279;SDS011;6708;49.814;8.652;2023-09-30T08:17:43;2.60;;;2.30;;
13279;SDS011;6708;49.814;8.652;2023-09-30T08:20:12;4.20;;;2.13;;
13279;SDS011;6708;49.814;8.652;2023-09-30T08:22:40;2.93;;;2.23;;
13279;SDS011;6708;49.814;8.652;2023-09-30T08:25:12;7.70;;;2.50;;
13279;SDS011;6708;49.814;8.652;2023-09-30T08:27:43;5.43;;;2.57;;
13279;SDS011;6708;49.814;8.652;2023-09-30T08:30:15;6.93;;;2.50;;
13279;SDS011;6708;49.814;8.652;2023-09-30T08:32:43;5.63;;;2.13;;
13279;SDS011;6708;49.814;8.652;2023-09-30T08:35:12;3.17;;;2.33;;
13279;SDS011;6708;49.814;8.652;2023-09-30T08:37:41;3.60;;;2.17;;
13279;SDS011;6708;49.814;8.652;2023-09-30T08:40:10;3.83;;;2.70;;
13279;SDS011;6708;49.814;8.652;2023-09-30T08:42:38;4.50;;;2.30;;
13279;SDS011;6708;49.814;8.652;2023-09-30T08:45:13;3.50;;;1.90;;
13279;SDS011;6708;49.814;8.652;2023-09-30T08:47:43;3.70;;;2.33;;
13279;SDS011;6708;49.814;8.652;2023-09-30T08:50:12;4.23;;;2.60;;
13279;SDS011;6708;49.814;8.652;2023-09-30T08:52:41;6.37;;;2.07;;
13279;SDS011;6708;49.814;8.652;2023-09-30T08:55:10;4.33;;;2.50;;
13279;SDS011;6708;49.814;8.652;2023-09-30T08:57:40;2.40;;;2.03;;
13279;SDS011;6708;49.814;8.652;2023-09-30T09:00:10;5.80;;;2.50;;
13279;SDS011;6708;49.814;8.652;2023-09-30T09:02:42;5.00;;;2.23;;
13279;SDS011;6708;49.814;8.652;2023-09-30T09:05:11;4.03;;;2.67;;
13279;SDS011;6708;49.814;8.652;2023-09-30T09:07:43;6.33;;;2.43;;
13279;SDS011;6708;49.814;8.652;2023-09-30T09:10:12;4.17;;;2.10;;
13279;SDS011;6708;49.814;8.652;2023-09-30T09:12:41;5.53;;;2.57;;
13279;SDS011;6708;49.814;8.652;2023-09-30T09:15:24;4.40;;;2.23;;
13279;SDS011;6708;49.814;8.652;2023-09-30T09:17:53;5.00;;;2.30;;
13279;SDS011;6708;49.814;8.652;2023-09-30T09:20:23;3.00;;;2.13;;
13279;SDS011;6708;49.814;8.652;2023-09-30T09:22:52;3.50;;;2.03;;
13279;SDS011;6708;49.814;8.652;2023-09-30T09:25:25;2.20;;;1.70;;
13279;SDS011;6708;49.814;8.652;2023-09-30T09:27:54;3.47;;;2.40;;
13279;SDS011;6708;49.814;8.652;2023-09-30T09:30:26;2.93;;;2.23;;
13279;SDS011;6708;49.814;8.652;2023-09-30T09:32:58;4.27;;;2.50;;
13279;SDS011;6708;49.814;8.652;2023-09-30T09:35:28;3.80;;;2.13;;
13279;SDS011;6708;49.814;8.652;2023-09-30T09:37:58;3.37;;;2.37;;
13279;SDS011;6708;49.814;8.652;2023-09-30T09:40:28;4.87;;;2.00;;
13279;SDS011;6708;49.814;8.652;2023-09-30T09:42:58;3.53;;;2.07;;
13279;SDS011;6708;49.814;8.652;2023-09-30T09:45:32;4.00;;;2.70;;
13279;SDS011;6708;49.814;8.652;2023-09-30T09:48:03;4.50;;;2.27;;
13279;SDS011;6708;49.814;8.652;2023-09-30T09:50:40;3.83;;;2.50;;
13279;SDS011;6708;49.814;8.652;2023-09-30T09:53:12;6.23;;;1.93;;
13279;SDS011;6708;49.814;8.652;2023-09-30T09:55:42;4.30;;;1.77;;
13279;SDS011;6708;49.814;8.652;2023-09-30T09:58:12;4.68;;;1.77;;
13279;SDS011;6708;49.814;8.652;2023-09-30T10:00:47;2.53;;;1.85;;
13279;SDS011;6708;49.814;8.652;2023-09-30T10:03:16;3.55;;;1.60;;
13279;SDS011;6708;49.814;8.652;2023-09-30T10:05:45;3.97;;;1.67;;
13279;SDS011;6708;49.814;8.652;2023-09-30T10:08:15;3.00;;;1.52;;
13279;SDS011;6708;49.814;8.652;2023-09-30T10:10:44;2.53;;;1.70;;
13279;SDS011;6708;49.814;8.652;2023-09-30T10:19:13;2.28;;;1.75;;
13279;SDS011;6708;49.814;8.652;2023-09-30T10:24:42;4.03;;;2.35;;
13279;SDS011;6708;49.814;8.652;2023-09-30T10:30:06;2.90;;;2.05;;
13279;SDS011;6708;49.814;8.652;2023-09-30T10:35:46;5.35;;;2.65;;
13279;SDS011;6708;49.814;8.652;2023-09-30T10:41:09;3.28;;;1.90;;
13279;SDS011;6708;49.814;8.652;2023-09-30T10:43:36;2.15;;;1.75;;
13279;SDS011;6708;49.814;8.652;2023-09-30T10:49:15;1.80;;;1.67;;
13279;SDS011;6708;49.814;8.652;2023-09-30T10:51:48;2.05;;;1.80;;
13279;SDS011;6708;49.814;8.652;2023-09-30T10:54:21;2.20;;;1.73;;
13279;SDS011;6708;49.814;8.652;2023-09-30T10:56:51;2.50;;;1.88;;
13279;SDS011;6708;49.814;8.652;2023-09-30T10:59:22;2.60;;;1.80;;
13279;SDS011;6708;49.814;8.652;2023-09-30T11:01:51;2.20;;;1.77;;
13279;SDS011;6708;49.814;8.652;2023-09-30T11:04:20;3.25;;;1.70;;
13279;SDS011;6708;49.814;8.652;2023-09-30T11:06:54;1.90;;;1.80;;
13279;SDS011;6708;49.814;8.652;2023-09-30T11:09:23;1.90;;;1.63;;
13279;SDS011;6708;49.814;8.652;2023-09-30T11:11:52;2.60;;;1.70;;
13279;SDS011;6708;49.814;8.652;2023-09-30T11:14:21;2.17;;;1.52;;
13279;SDS011;6708;49.814;8.652;2023-09-30T11:16:52;2.70;;;1.90;;
13279;SDS011;6708;49.814;8.652;2023-09-30T11:19:21;2.00;;;1.63;;
13279;SDS011;6708;49.814;8.652;2023-09-30T11:21:55;4.25;;;2.17;;
13279;SDS011;6708;49.814;8.652;2023-09-30T11:24:24;2.80;;;1.77;;
13279;SDS011;6708;49.814;8.652;2023-09-30T11:26:54;2.60;;;1.60;;
13279;SDS011;6708;49.814;8.652;2023-09-30T11:29:25;2.65;;;1.60;;
13279;SDS011;6708;49.814;8.652;2023-09-30T11:31:54;5.07;;;2.67;;
13279;SDS011;6708;49.814;8.652;2023-09-30T11:34:31;2.40;;;1.60;;
13279;SDS011;6708;49.814;8.652;2023-09-30T11:37:07;1.77;;;1.67;;
13279;SDS011;6708;49.814;8.652;2023-09-30T11:42:25;4.13;;;1.98;;
13279;SDS011;6708;49.814;8.652;2023-09-30T11:44:54;3.30;;;1.88;;
13279;SDS011;6708;49.814;8.652;2023-09-30T11:47:28;3.33;;;1.52;;
13279;SDS011;6708;49.814;8.652;2023-09-30T11:49:59;3.65;;;1.98;;
13279;SDS011;6708;49.814;8.652;2023-09-30T11:52:32;2.58;;;1.77;;
13279;SDS011;6708;49.814;8.652;2023-09-30T11:55:07;5.47;;;1.85;;
13279;SDS011;6708;49.814;8.652;2023-09-30T11:57:38;2.13;;;1.80;;
13279;SDS011;6708;49.814;8.652;2023-09-30T12:00:08;1.63;;;1.48;;
13279;SDS011;6708;49.814;8.652;2023-09-30T12:02:39;2.05;;;1.92;;
13279;SDS011;6708;49.814;8.652;2023-09-30T12:05:10;1.77;;;1.50;;
13279;SDS011;6708;49.814;8.652;2023-09-30T12:07:44;1.98;;;1.75;;
13279;SDS011;6708;49.814;8.652;2023-09-30T12:10:17;1.80;;;1.63;;
13279;SDS011;6708;49.814;8.652;2023-09-30T12:12:46;3.55;;;1.80;;
13279;SDS011;6708;49.814;8.652;2023-09-30T12:15:15;1.98;;;1.77;;
13279;SDS011;6708;49.814;8.652;2023-09-30T12:17:47;2.08;;;1.58;;
13279;SDS011;6708;49.814;8.652;2023-09-30T12:20:16;2.72;;;1.95;;
13279;SDS011;6708;49.814;8.652;2023-09-30T12:22:47;3.45;;;1.75;;
13279;SDS011;6708;49.814;8.652;2023-09-30T12:25:17;3.08;;;1.52;;
13279;SDS011;6708;49.814;8.652;2023-09-30T12:27:46;4.15;;;1.48;;
13279;SDS011;6708;49.814;8.652;2023-09-30T12:30:19;2.08;;;1.48;;
13279;SDS011;6708;49.814;8.652;2023-09-30T12:32:47;1.65;;;1.45;;
13279;SDS011;6708;49.814;8.652;2023-09-30T12:35:16;1.90;;;1.60;;
13279;SDS011;6708;49.814;8.652;2023-09-30T12:37:47;4.13;;;2.20;;
13279;SDS011;6708;49.814;8.652;2023-09-30T12:40:16;3.50;;;1.52;;
13279;SDS011;6708;49.814;8.652;2023-09-30T12:42:45;2.35;;;1.50;;
13279;SDS011;6708;49.814;8.652;2023-09-30T12:45:14;3.45;;;1.55;;
13279;SDS011;6708;49.814;8.652;2023-09-30T12:47:43;2.30;;;1.73;;
13279;SDS011;6708;49.814;8.652;2023-09-30T12:50:12;3.33;;;1.70;;
13279;SDS011;6708;49.814;8.652;2023-09-30T12:52:50;2.38;;;1.55;;
13279;SDS011;6708;49.814;8.652;2023-09-30T12:55:19;1.75;;;1.60;;
13279;SDS011;6708;49.814;8.652;2023-09-30T12:57:51;2.30;;;1.63;;
13279;SDS011;6708;49.814;8.652;2023-09-30T13:00:21;5.20;;;1.88;;
13279;SDS011;6708;49.814;8.652;2023-09-30T13:02:50;4.85;;;1.75;;
13279;SDS011;6708;49.814;8.652;2023-09-30T13:05:19;3.33;;;1.83;;
13279;SDS011;6708;49.814;8.652;2023-09-30T13:07:52;4.47;;;2.35;;
13279;SDS011;6708;49.814;8.652;2023-09-30T13:10:21;2.67;;;1.95;;
13279;SDS011;6708;49.814;8.652;2023-09-30T13:12:51;2.63;;;1.65;;
13279;SDS011;6708;49.814;8.652;2023-09-30T13:15:20;2.92;;;1.85;;
13279;SDS011;6708;49.814;8.652;2023-09-30T13:17:51;1.85;;;1.73;;
13279;SDS011;6708;49.814;8.652;2023-09-30T13:20:24;3.97;;;2.00;;
13279;SDS011;6708;49.814;8.652;2023-09-30T13:22:57;4.05;;;2.15;;
13279;SDS011;6708;49.814;8.652;2023-09-30T13:25:29;2.03;;;1.55;;
13279;SDS011;6708;49.814;8.652;2023-09-30T13:27:58;2.25;;;1.98;;
13279;SDS011;6708;49.814;8.652;2023-09-30T13:30:29;3.40;;;2.00;;
13279;SDS011;6708;49.814;8.652;2023-09-30T13:33:00;4.60;;;1.63;;
13279;SDS011;6708;49.814;8.652;2023-09-30T13:35:28;2.25;;;2.08;;
13279;SDS011;6708;49.814;8.652;2023-09-30T13:38:00;2.17;;;2.00;;
13279;SDS011;6708;49.814;8.652;2023-09-30T13:40:32;1.90;;;1.80;;
13279;SDS011;6708;49.814;8.652;2023-09-30T13:43:00;1.80;;;1.70;;
13279;SDS011;6708;49.814;8.652;2023-09-30T13:45:29;1.80;;;1.60;;
13279;SDS011;6708;49.814;8.652;2023-09-30T13:47:57;1.98;;;1.88;;
13279;SDS011;6708;49.814;8.652;2023-09-30T13:50:26;2.15;;;1.80;;
13279;SDS011;6708;49.814;8.652;2023-09-30T13:52:55;2.33;;;1.90;;
13279;SDS011;6708;49.814;8.652;2023-09-30T13:55:28;2.28;;;2.08;;
13279;SDS011;6708;49.814;8.652;2023-09-30T13:57:57;2.67;;;2.15;;
13279;SDS011;6708;49.814;8.652;2023-09-30T14:00:26;6.47;;;1.85;;
13279;SDS011;6708;49.814;8.652;2023-09-30T14:02:59;2.33;;;2.05;;
13279;SDS011;6708;49.814;8.652;2023-09-30T14:05:28;2.10;;;1.80;;
13279;SDS011;6708;49.814;8.652;2023-09-30T14:07:56;2.47;;;2.08;;
13279;SDS011;6708;49.814;8.652;2023-09-30T14:10:29;2.28;;;2.08;;
13279;SDS011;6708;49.814;8.652;2023-09-30T14:12:58;2.88;;;2.47;;
13279;SDS011;6708;49.814;8.652;2023-09-30T14:15:26;2.78;;;1.85;;
13279;SDS011;6708;49.814;8.652;2023-09-30T14:17:56;2.78;;;2.10;;
13279;SDS011;6708;49.814;8.652;2023-09-30T14:20:25;3.83;;;1.80;;
13279;SDS011;6708;49.814;8.652;2023-09-30T14:22:53;2.65;;;2.20;;
13279;SDS011;6708;49.814;8.652;2023-09-30T14:25:23;2.65;;;2.22;;
13279;SDS011;6708;49.814;8.652;2023-09-30T14:27:54;2.08;;;1.88;;
13279;SDS011;6708;49.814;8.652;2023-09-30T14:30:25;3.65;;;1.77;;
13279;SDS011;6708;49.814;8.652;2023-09-30T14:32:54;2.05;;;1.85;;
13279;SDS011;6708;49.814;8.652;2023-09-30T14:35:25;3.42;;;2.10;;
13279;SDS011;6708;49.814;8.652;2023-09-30T14:37:54;3.00;;;2.08;;
13279;SDS011;6708;49.814;8.652;2023-09-30T14:40:22;2.60;;;1.95;;
13279;SDS011;6708;49.814;8.652;2023-09-30T14:42:54;2.63;;;2.22;;
13279;SDS011;6708;49.814;8.652;2023-09-30T14:45:22;4.00;;;2.22;;
13279;SDS011;6708;49.814;8.652;2023-09-30T14:47:51;2.15;;;1.92;;
13279;SDS011;6708;49.814;8.652;2023-09-30T14:50:20;3.30;;;2.22;;
13279;SDS011;6708;49.814;8.652;2023-09-30T14:52:48;1.90;;;1.80;;
13279;SDS011;6708;49.814;8.652;2023-09-30T14:55:19;4.40;;;1.65;;
13279;SDS011;6708;49.814;8.652;2023-09-30T14:57:47;2.35;;;2.15;;
13279;SDS011;6708;49.814;8.652;2023-09-30T15:00:19;1.83;;;1.73;;
13279;SDS011;6708;49.814;8.652;2023-09-30T15:02:50;3.53;;;2.42;;
13279;SDS011;6708;49.814;8.652;2023-09-30T15:05:19;1.70;;;1.60;;
13279;SDS011;6708;49.814;8.652;2023-09-30T15:07:52;2.40;;;2.20;;
13279;SDS011;6708;49.814;8.652;2023-09-30T15:10:33;5.57;;;2.50;;
13279;SDS011;6708;49.814;8.652;2023-09-30T15:13:03;3.47;;;2.40;;
13279;SDS011;6708;49.814;8.652;2023-09-30T15:15:38;3.50;;;2.20;;
13279;SDS011;6708;49.814;8.652;2023-09-30T15:18:36;2.87;;;2.40;;
13279;SDS011;6708;49.814;8.652;2023-09-30T15:21:05;2.57;;;2.37;;
13279;SDS011;6708;49.814;8.652;2023-09-30T15:23:34;5.83;;;2.70;;
13279;SDS011;6708;49.814;8.652;2023-09-30T15:26:03;3.60;;;3.27;;
13279;SDS011;6708;49.814;8.652;2023-09-30T15:28:31;3.87;;;3.00;;
13279;SDS011;6708;49.814;8.652;2023-09-30T15:31:05;4.67;;;2.53;;
13279;SDS011;6708;49.814;8.652;2023-09-30T15:33:34;3.63;;;3.17;;
13279;SDS011;6708;49.814;8.652;2023-09-30T15:36:08;4.13;;;2.60;;
13279;SDS011;6708;49.814;8.652;2023-09-30T15:38:37;3.83;;;2.97;;
13279;SDS011;6708;49.814;8.652;2023-09-30T15:41:05;8.47;;;2.90;;